Aérodrome :







RETROUVEZ-NOUS SUR...

 
LOGIN :

S'inscrire | Disclaimer

   EN    FR    IT 

 









Légende :    VFR   VFR Marginal   IFR   IFR Intensif   IFR Très Intensif
Visi : 
Plafond : 
>= 8 km
>= 3000ft
5 à 8 km
1000 à 3000 ft
1500m à 5 km
500 à 1000 ft
800 à 1500m
200 à 500 ft
< 800m
< 200 ft
Symboles :   Orages  Brouillard  Fortes neiges  Fortes précipitations  Vent > 20 kt






- Altitude de l'aérodrome : 586 ft
- Code IATA : YRJ


CYRJ - Roberval

DERNIER METAR :
  • 201721Z 33006KT 8SM SCT017 BKN087 M01/M04 A3000 RMK SC3AS3 SLP171

METARs EXPIRÉS :
  • 201700Z 32008KT 4SM -SHSN SCT017 BKN074 M01/M04 A3000 RMK SC4AC3 CVCTV CLD EMBD SLP170
  • 201600Z 32004KT 4SM +SHSN SCT009 BKN087 M01/M03 A3001 RMK SC4AS3 CVCTV CLD EMB SLP173
  • 201549Z 32004KT 3SM -SHSN OVC007 M01/M03 A3001 RMK SC8 CVCTV CLD EMBD SLP175
  • 201522Z 29003KT 1SM -SHSN OVC012 M02/M04 A3002 RMK SN4SC4 CVCTV CLD EMB SLP179
  • 201513Z 32002KT 2SM -SHSN OVC015 M02/M04 A3002 RMK SN2SC6 CVCTV CLD EMB SLP179

TAF AMD TAF CYRJ
Valide du 20 à 15h jusqu'au 21 à 01h UTC


201556Z 2015/2101 VRB03KT 6SM -SN OVC020
TEMPO 2015/2018 3SM -SN OVC007
PROB30 2015/2016 3SM -SN -FZDZ OVC010
FM201800 35005KT P6SM BKN025 OVC040
TEMPO 2018/2024 5SM -SN OVC025
FM210000 VRB03KT P6SM SCT050 BKN140 RMK NXT FCST BY 202000Z



MET'MAP, la Météo Aéronautique d'un coup d'oeil ! - Copyright ORBIFLY Décembre 2007 - Disclaimer

ORBIFLY MET'MAP TEAM :

Programmation & Développement : Alexandra Zaïnal
Conception & Développement : Baudouin d'Aumeries
Co-Programmation & Développement : Marc-Olivier Méhu
Soutien technique & logistique : Manuel Goepfert

Contact : metmap@orbifly.com




SOURCES & CREDITS :

   NOAA